Time;durP1;ratioP1;P1;durP2;ratioP2;P2;SDS_P1;SDS_P2;PMS_P1;PMS_P2;Temp;Humidity;BMP_temperature;BMP_pressure;BME280_temperature;BME280_humidity;BME280_pressure;Samples;Min_cycle;Max_cycle;Signal;HPM_P1;HPM_P2
2022/01/16 00:04:09;;;;;;;142.23;76.20;;;;;;;;;;5015530;28;20014;-75
2022/01/16 00:06:40;;;;;;;139.07;77.10;;;;;;;;;;5023148;28;20120;-69
2022/01/16 00:09:08;;;;;;;70.18;39.53;;;;;;;;;;5033379;28;20100;-71
2022/01/16 00:11:38;;;;;;;72.53;40.28;;;76.80;2227.20;;;;;;5016391;28;20028;-77
2022/01/16 00:14:06;;;;;;;86.43;47.55;;;76.80;2227.20;;;;;;5033492;28;20380;-73
2022/01/16 00:16:33;;;;;;;93.38;49.67;;;;;;;;;;5032727;28;20494;-70
2022/01/16 00:19:03;;;;;;;74.38;42.53;;;;;;;;;;5032611;28;20411;-75
2022/01/16 00:21:41;;;;;;;59.78;36.53;;;;;;;;;;5032592;28;20040;-73
2022/01/16 00:24:08;;;;;;;81.72;44.38;;;;;;;;;;5032383;28;20054;-75
2022/01/16 00:26:35;;;;;;;62.08;36.70;;;76.90;2227.20;;;;;;5032553;28;20116;-80
2022/01/16 00:29:01;;;;;;;81.18;46.15;;;76.90;2227.20;;;;;;5032548;28;20378;-76
2022/01/16 00:31:27;;;;;;;71.13;41.08;;;76.80;2227.20;;;;;;5032219;28;20392;-70
2022/01/16 00:33:53;;;;;;;99.70;58.83;;;76.90;2227.20;;;;;;5032357;28;20485;-73
2022/01/16 00:36:20;;;;;;;63.05;39.72;;;77.00;2227.20;;;;;;5032012;28;20025;-79
2022/01/16 00:38:50;;;;;;;51.50;30.55;;;76.90;2227.20;;;;;;5032238;28;20396;-73
2022/01/16 00:41:19;;;;;;;49.30;31.25;;;76.80;2227.20;;;;;;5032448;28;20033;-75
2022/01/16 00:43:45;;;;;;;48.92;30.42;;;76.80;2227.20;;;;;;5032374;28;20037;-72
2022/01/16 00:46:13;;;;;;;57.33;33.80;;;76.80;2227.20;;;;;;5032635;28;20045;-70
2022/01/16 00:48:39;;;;;;;74.60;42.63;;;52.10;2227.20;;;;;;5032169;28;20028;-72
2022/01/16 00:51:05;;;;;;;63.10;38.13;;;52.10;2227.20;;;;;;5032410;28;20025;-73
2022/01/16 00:53:31;;;;;;;63.75;39.80;;;52.10;2227.20;;;;;;5032463;28;20104;-75
2022/01/16 00:55:57;;;;;;;88.25;48.33;;;52.00;2227.20;;;;;;5033220;28;20052;-74
2022/01/16 00:58:26;;;;;;;61.50;36.67;;;52.00;2227.20;;;;;;5032482;28;20386;-69
2022/01/16 01:00:54;;;;;;;59.30;34.10;;;52.00;2227.20;;;;;;5032406;28;20083;-69
2022/01/16 01:03:22;;;;;;;69.18;38.25;;;52.00;2227.20;;;;;;5032159;28;20079;-69
2022/01/16 01:05:48;;;;;;;57.78;34.30;;;52.00;2227.20;;;;;;5032191;28;20391;-77
2022/01/16 01:08:17;;;;;;;62.85;35.17;;;52.00;2227.20;;;;;;5031999;28;20029;-78
2022/01/16 01:10:48;;;;;;;64.68;38.40;;;52.00;2227.20;;;;;;5032651;28;20029;-71
2022/01/16 01:13:32;;;;;;;60.90;33.88;;;51.80;2227.20;;;;;;5035949;28;20099;-69
2022/01/16 01:16:02;;;;;;;45.67;27.58;;;;;;;;;;5035516;28;20031;-70
2022/01/16 01:18:28;;;;;;;46.85;27.67;;;;;;;;;;5035420;28;20021;-69
2022/01/16 01:20:58;;;;;;;65.68;36.22;;;;;;;;;;5035429;28;20079;-69
2022/01/16 01:23:24;;;;;;;45.42;28.33;;;;;;;;;;5035131;28;20052;-72
2022/01/16 01:25:51;;;;;;;48.45;28.67;;;;;;;;;;5035408;28;20511;-72
2022/01/16 01:28:17;;;;;;;49.40;26.40;;;;;;;;;;5035408;28;20021;-69
2022/01/16 01:30:46;;;;;;;45.88;28.02;;;;;;;;;;5035230;28;20025;-70
2022/01/16 01:33:13;;;;;;;54.22;32.80;;;;;;;;;;5035206;28;20093;-72
2022/01/16 01:35:40;;;;;;;42.03;24.77;;;;;;;;;;5035340;28;20151;-74
2022/01/16 01:38:07;;;;;;;41.78;24.88;;;;;;;;;;5035067;28;20025;-70
2022/01/16 01:40:35;;;;;;;41.50;25.20;;;51.90;2227.20;;;;;;5035122;28;20029;-69
2022/01/16 01:43:16;;;;;;;43.92;25.55;;;51.90;2227.20;;;;;;5035284;28;20018;-69
2022/01/16 01:51:23;;;;;;;;;;;;;;;;;;5034084;28;20044;-71
2022/01/16 01:53:55;;;;;;;42.25;25.73;;;;;;;;;;5035116;28;20275;-69
2022/01/16 01:56:23;;;;;;;44.45;28.48;;;;;;;;;;5034648;28;20107;-71
2022/01/16 01:58:51;;;;;;;66.43;36.50;;;;;;;;;;5034962;28;20033;-71
2022/01/16 02:01:23;;;;;;;54.60;31.25;;;;;;;;;;5034632;28;20472;-71
2022/01/16 02:03:51;;;;;;;48.85;29.98;;;;;;;;;;5034735;28;20371;-71
2022/01/16 02:06:25;;;;;;;53.95;32.67;;;52.10;2227.20;;;;;;5034638;28;20152;-72
2022/01/16 02:09:00;;;;;;;44.85;29.02;;;76.80;2227.20;;;;;;5033598;28;20044;-71
2022/01/16 02:11:29;;;;;;;38.75;25.15;;;52.10;2227.20;;;;;;5032919;28;20037;-72
2022/01/16 02:33:21;;;;;;;75.30;43.47;;;;;;;;;;5034688;28;20154;-71
2022/01/16 02:35:41;;;;;;;46.95;29.48;;;;;;;;;;5034222;28;20033;-72
2022/01/16 02:38:07;;;;;;;;;;;;;;;;;;5034717;28;20076;-71
2022/01/16 02:40:35;;;;;;;46.78;28.88;;;;;;;;;;5034362;28;20371;-71
2022/01/16 02:43:05;;;;;;;38.97;26.40;;;;;;;;;;5016215;28;20030;-70
2022/01/16 02:45:33;;;;;;;43.30;26.20;;;;;;;;;;5034321;28;20026;-71
2022/01/16 02:48:01;;;;;;;42.17;27.83;;;;;;;;;;5034124;28;20430;-71
2022/01/16 02:50:28;;;;;;;39.70;25.25;;;;;;;;;;5033769;28;20471;-71
2022/01/16 02:52:54;;;;;;;44.60;28.80;;;;;;;;;;5034370;28;20475;-71
2022/01/16 02:55:22;;;;;;;42.95;25.08;;;77.00;2227.20;;;;;;5033671;28;20403;-72
2022/01/16 02:57:51;;;;;;;40.42;26.77;;;76.90;2227.20;;;;;;5034005;28;20018;-74
2022/01/16 03:00:17;;;;;;;40.85;26.48;;;;;;;;;;5015980;28;20026;-72
2022/01/16 03:02:43;;;;;;;41.28;24.92;;;;;;;;;;5033853;28;20029;-72
2022/01/16 03:05:09;;;;;;;72.32;39.53;;;;;;;;;;5033133;28;20072;-72
2022/01/16 03:07:36;;;;;;;51.25;30.80;;;;;;;;;;5016099;28;20032;-72
2022/01/16 03:12:50;;;;;;;46.63;29.77;;;;;;;;;;5033842;28;20491;-71
2022/01/16 03:15:19;;;;;;;44.03;27.50;;;;;;;;;;5015141;28;20017;-73
2022/01/16 03:23:08;;;;;;;48.38;29.92;;;;;;;;;;5033209;28;20237;-74
2022/01/16 03:25:34;;;;;;;50.47;32.17;;;51.50;2227.20;;;;;;5033337;28;20068;-73
2022/01/16 03:28:00;;;;;;;45.38;28.77;;;;;;;;;;5033307;28;20035;-72
2022/01/16 03:30:26;;;;;;;48.25;28.20;;;;;;;;;;5033219;28;20017;-74
2022/01/16 03:32:52;;;;;;;39.17;26.08;;;;;;;;;;5032921;28;20393;-74
2022/01/16 03:35:18;;;;;;;38.60;25.67;;;;;;;;;;5033020;28;20026;-71
2022/01/16 03:37:47;;;;;;;41.72;26.52;;;;;;;;;;5033094;28;20026;-74
2022/01/16 03:40:14;;;;;;;48.28;27.73;;;;;;;;;;5033131;28;20025;-73
2022/01/16 03:42:40;;;;;;;54.58;29.60;;;;;;;;;;5033169;28;20018;-69
2022/01/16 03:45:08;;;;;;;46.08;28.83;;;;;;;;;;5032730;28;20075;-72
2022/01/16 03:47:34;;;;;;;44.97;28.67;;;;;;;;;;5032965;28;20026;-71
2022/01/16 03:50:00;;;;;;;40.88;25.23;;;;;;;;;;5032982;28;20022;-72
2022/01/16 03:52:26;;;;;;;41.33;24.25;;;;;;;;;;5032898;28;20036;-76
2022/01/16 03:54:52;;;;;;;39.50;24.17;;;;;;;;;;5032996;28;20372;-72
2022/01/16 03:57:19;;;;;;;35.90;23.35;;;;;;;;;;5032794;28;20101;-74
2022/01/16 03:59:45;;;;;;;35.45;23.02;;;;;;;;;;5032847;28;20021;-77
2022/01/16 04:02:11;;;;;;;39.30;23.95;;;;;;;;;;5033021;28;20025;-73
2022/01/16 04:04:37;;;;;;;34.55;22.35;;;51.50;2227.20;;;;;;5032814;28;20021;-72
2022/01/16 04:07:03;;;;;;;35.17;22.50;;;51.50;2227.20;;;;;;5032653;28;20037;-75
2022/01/16 04:09:31;;;;;;;37.30;22.45;;;51.60;2227.20;;;;;;5032123;28;20034;-76
2022/01/16 04:11:58;;;;;;;36.55;24.08;;;51.90;2227.20;;;;;;5032504;28;20026;-71
2022/01/16 04:17:27;;;;;;;51.75;31.38;;;51.50;2227.20;;;;;;5032919;28;20032;-75
2022/01/16 04:19:53;;;;;;;45.58;28.52;;;;;;;;;;5032663;28;20025;-74
2022/01/16 04:22:20;;;;;;;49.10;28.65;;;;;;;;;;5032557;28;20034;-71
2022/01/16 04:24:46;;;;;;;50.80;29.75;;;;;;;;;;5032557;28;20092;-75
2022/01/16 04:27:13;;;;;;;52.13;32.08;;;;;;;;;;5032256;28;20495;-75
2022/01/16 04:29:40;;;;;;;57.53;32.75;;;;;;;;;;5032656;28;20135;-75
2022/01/16 04:32:06;;;;;;;60.92;35.55;;;;;;;;;;5032542;28;20112;-70
2022/01/16 04:34:38;;;;;;;56.33;34.00;;;26.20;2201.60;;;;;;5032162;28;20034;-74
2022/01/16 04:37:04;;;;;;;;;;;;;;;;;;5032461;28;20021;-71
2022/01/16 04:39:33;;;;;;;60.53;33.78;;;;;;;;;;5031965;28;19912;-76
2022/01/16 04:44:44;;;;;;;61.17;33.85;;;;;;;;;;5032208;28;20083;-71
2022/01/16 04:47:11;;;;;;;51.55;31.50;;;;;;;;;;5035507;28;20391;-76
2022/01/16 04:49:37;;;;;;;47.63;30.88;;;;;;;;;;5036226;28;20032;-71
2022/01/16 04:52:04;;;;;;;48.63;30.17;;;;;;;;;;5036482;28;20116;-72
2022/01/16 04:54:31;;;;;;;49.78;32.13;;;;;;;;;;5035447;28;20072;-70
2022/01/16 04:56:57;;;;;;;55.33;31.88;;;;;;;;;;5036061;28;20021;-71
2022/01/16 04:59:23;;;;;;;46.95;28.63;;;;;;;;;;5036014;28;20029;-70
2022/01/16 05:01:51;;;;;;;57.92;33.88;;;;;;;;;;5036356;28;20030;-72
2022/01/16 05:04:17;;;;;;;57.35;35.10;;;;;;;;;;5035857;28;20519;-75
2022/01/16 05:06:46;;;;;;;48.13;28.70;;;;;;;;;;5036025;28;20380;-70
2022/01/16 05:09:12;;;;;;;44.35;27.20;;;;;;;;;;5035538;28;20384;-72
2022/01/16 05:11:38;;;;;;;45.50;28.10;;;;;;;;;;5036045;28;20143;-69
2022/01/16 05:16:37;;;;;;;57.33;32.88;;;25.70;2201.60;;;;;;5035731;28;20026;-72
2022/01/16 05:19:04;;;;;;;56.63;30.40;;;;;;;;;;5036064;28;20514;-71
2022/01/16 05:21:30;;;;;;;47.83;31.13;;;25.60;2201.60;;;;;;5035470;28;20029;-71
2022/01/16 05:23:56;;;;;;;52.85;31.13;;;25.80;2201.60;;;;;;5035107;28;20504;-71
2022/01/16 05:26:27;;;;;;;51.50;33.00;;;25.90;2201.60;;;;;;5035689;28;20042;-70
2022/01/16 05:28:53;;;;;;;50.90;30.17;;;;;;;;;;5035551;28;20329;-71
2022/01/16 05:31:19;;;;;;;56.08;33.72;;;26.40;2201.60;;;;;;5035454;28;20503;-70
2022/01/16 05:33:44;;;;;;;120.15;72.28;;;51.30;2227.20;;;;;;5035685;28;20022;-71
2022/01/16 05:36:10;;;;;;;79.82;50.10;;;51.20;2227.20;;;;;;5035363;28;20025;-70
2022/01/16 05:38:36;;;;;;;43.15;25.83;;;26.20;2201.60;;;;;;5034940;28;20028;-70
2022/01/16 05:41:02;;;;;;;40.10;26.55;;;25.90;2201.60;;;;;;5035430;28;20112;-69
2022/01/16 05:43:30;;;;;;;55.03;40.00;;;0.90;2201.60;;;;;;5035292;28;20083;-69
2022/01/16 05:45:56;;;;;;;65.32;45.33;;;0.70;2201.60;;;;;;5035462;28;20084;-70
2022/01/16 05:48:22;;;;;;;57.78;34.33;;;0.60;2201.60;;;;;;5035069;28;20484;-70
2022/01/16 05:50:48;;;;;;;50.83;27.85;;;;;;;;;;5035393;28;20128;-69
2022/01/16 05:53:14;;;;;;;43.63;27.00;;;0.50;2201.60;;;;;;5035357;28;20025;-70
2022/01/16 05:55:41;;;;;;;50.95;30.52;;;;;;;;;;5034952;28;20108;-71
2022/01/16 05:58:08;;;;;;;50.88;29.83;;;;;;;;;;5033693;28;20026;-70
2022/01/16 06:00:36;;;;;;;54.85;33.13;;;0.70;2201.60;;;;;;5034533;28;20174;-70
2022/01/16 06:03:01;;;;;;;48.78;30.65;;;0.70;2201.60;;;;;;5034960;28;20022;-71
2022/01/16 06:05:28;;;;;;;58.20;33.97;;;;;;;;;;5034415;28;20413;-69
2022/01/16 06:07:58;;;;;;;53.10;32.60;;;0.60;2201.60;;;;;;5034665;28;20104;-69
2022/01/16 06:10:24;;;;;;;55.53;35.33;;;0.70;2201.60;;;;;;5034916;28;20032;-71
2022/01/16 06:12:53;;;;;;;50.88;32.70;;;;;;;;;;5034698;28;20118;-70
2022/01/16 06:15:24;;;;;;;56.40;32.47;;;0.70;2201.60;;;;;;5034690;28;20026;-69
2022/01/16 06:17:51;;;;;;;49.83;32.70;;;;;;;;;;5034709;28;20057;-70
2022/01/16 06:20:17;;;;;;;59.65;41.47;;;0.80;2201.60;;;;;;5034418;28;20025;-71
2022/01/16 06:22:44;;;;;;;69.38;46.50;;;0.80;2201.60;;;;;;5034372;28;20045;-70
2022/01/16 06:25:11;;;;;;;76.45;51.83;;;;;;;;;;5034309;28;20036;-70
2022/01/16 06:27:37;;;;;;;61.17;39.38;;;;;;;;;;5034470;28;20036;-69
2022/01/16 06:30:04;;;;;;;60.63;37.55;;;;;;;;;;5034370;28;20021;-69
2022/01/16 06:32:30;;;;;;;67.65;44.03;;;;;;;;;;5034560;28;20423;-71
2022/01/16 06:34:56;;;;;;;81.82;48.53;;;;;;;;;;5034151;28;20044;-71
2022/01/16 06:37:22;;;;;;;78.75;48.42;;;;;;;;;;5034094;28;20036;-69
2022/01/16 06:39:48;;;;;;;86.95;55.72;;;;;;;;;;5034255;28;20033;-69
2022/01/16 06:42:14;;;;;;;75.88;48.03;;;;;;;;;;5034028;28;20047;-69
2022/01/16 06:44:40;;;;;;;82.03;53.90;;;;;;;;;;5034127;28;20025;-69
2022/01/16 06:47:06;;;;;;;92.22;54.40;;;;;;;;;;5033870;28;20068;-71
2022/01/16 06:49:32;;;;;;;90.57;59.13;;;;;;;;;;5033790;28;20057;-69
2022/01/16 06:51:58;;;;;;;96.60;55.38;;;;;;;;;;5033797;28;20034;-69
2022/01/16 06:54:24;;;;;;;92.82;58.35;;;;;;;;;;5016320;28;20025;-70
2022/01/16 06:56:50;;;;;;;125.53;79.78;;;;;;;;;;5033680;28;20022;-68
2022/01/16 06:59:17;;;;;;;163.82;93.63;;;;;;;;;;5033635;28;20029;-71
2022/01/16 07:01:43;;;;;;;111.38;63.72;;;;;;;;;;5033503;28;20533;-70
2022/01/16 07:04:09;;;;;;;103.25;62.40;;;;;;;;;;5033456;28;20399;-72
2022/01/16 07:06:35;;;;;;;97.13;60.40;;;;;;;;;;5033576;28;20037;-70
2022/01/16 07:09:01;;;;;;;88.15;50.58;;;;;;;;;;5033184;28;20116;-69
2022/01/16 07:11:27;;;;;;;80.57;51.10;;;;;;;;;;5033481;28;20625;-71
2022/01/16 07:13:53;;;;;;;74.40;46.60;;;;;;;;;;5016035;28;20403;-70
2022/01/16 07:16:19;;;;;;;92.15;53.65;;;;;;;;;;5033535;28;20021;-71
2022/01/16 07:18:45;;;;;;;80.95;50.15;;;;;;;;;;5033833;28;20060;-70
2022/01/16 07:21:14;;;;;;;83.60;50.60;;;;;;;;;;5033177;28;20464;-69
2022/01/16 07:23:44;;;;;;;91.25;53.22;;;;;;;;;;5025247;28;20045;-72
2022/01/16 07:26:11;;;;;;;85.00;52.40;;;;;;;;;;5033599;28;20029;-71
2022/01/16 07:28:37;;;;;;;89.13;53.85;;;;;;;;;;5033314;28;20022;-70
2022/01/16 07:31:03;;;;;;;102.55;62.95;;;;;;;;;;5033252;28;20055;-71
2022/01/16 07:33:29;;;;;;;87.65;54.03;;;;;;;;;;5033124;28;20040;-70
2022/01/16 07:35:55;;;;;;;95.15;57.20;;;;;;;;;;5033116;28;20515;-70
2022/01/16 07:38:21;;;;;;;85.47;56.63;;;;;;;;;;5033323;28;20049;-70
2022/01/16 07:40:47;;;;;;;118.68;73.40;;;;;;;;;;5033081;28;20521;-70
2022/01/16 07:43:14;;;;;;;109.47;66.43;;;;;;;;;;5032881;28;20764;-69
2022/01/16 07:45:40;;;;;;;109.07;70.55;;;;;;;;;;5032902;28;20029;-70
2022/01/16 07:48:10;;;;;;;126.18;79.60;;;;;;;;;;5033433;28;20021;-70
2022/01/16 07:50:39;;;;;;;129.05;88.30;;;77.60;2227.20;;;;;;5032746;28;20340;-71
2022/01/16 07:53:08;;;;;;;117.10;75.97;;;77.60;2227.20;;;;;;5032625;28;20407;-70
2022/01/16 07:55:34;;;;;;;128.23;83.40;;;102.40;2227.20;;;;;;5033133;28;20071;-71
2022/01/16 07:58:00;;;;;;;124.80;79.78;;;102.50;2227.20;;;;;;5032555;28;20437;-70
2022/01/16 08:00:27;;;;;;;126.68;84.63;;;;;;;;;;5033083;28;20041;-70
2022/01/16 08:02:53;;;;;;;136.45;85.32;;;103.00;2227.20;;;;;;5032671;28;20091;-71
2022/01/16 08:05:20;;;;;;;160.25;99.20;;;;;;;;;;5032373;28;20026;-70
2022/01/16 08:07:46;;;;;;;138.55;88.28;;;;;;;;;;5032727;28;20112;-70
2022/01/16 08:10:12;;;;;;;133.18;83.40;;;;;;;;;;5015187;28;20029;-71
2022/01/16 08:12:38;;;;;;;128.55;80.88;;;;;;;;;;5032819;28;20030;-70
2022/01/16 08:15:07;;;;;;;148.00;94.78;;;;;;;;;;5032645;28;20093;-69
2022/01/16 08:17:33;;;;;;;141.77;87.55;;;;;;;;;;5014757;28;20042;-71
2022/01/16 08:19:59;;;;;;;144.25;97.40;;;;;;;;;;5031921;28;20026;-70
2022/01/16 08:22:25;;;;;;;138.10;96.45;;;;;;;;;;5032152;28;20404;-69
2022/01/16 08:24:52;;;;;;;144.70;100.22;;;;;;;;;;5032521;28;20141;-69
2022/01/16 08:27:17;;;;;;;123.28;83.65;;;128.50;2252.80;;;;;;5032353;28;20057;-72
2022/01/16 08:29:44;;;;;;;122.25;85.43;;;;;;;;;;5032365;28;20545;-70
2022/01/16 08:32:10;;;;;;;120.55;82.20;;;;;;;;;;5032783;28;20064;-70
2022/01/16 08:34:41;;;;;;;187.45;108.30;;;;;;;;;;5032067;28;20037;-71
2022/01/16 08:37:07;;;;;;;368.77;198.87;;;;;;;;;;5032063;28;20032;-71
2022/01/16 08:39:33;;;;;;;121.40;74.50;;;;;;;;;;5032063;28;20111;-71
2022/01/16 08:41:59;;;;;;;125.18;77.90;;;;;;;;;;4996764;28;20030;-71
2022/01/16 08:44:25;;;;;;;114.50;77.50;;;;;;;;;;4995813;28;20026;-73
2022/01/16 08:46:51;;;;;;;118.43;82.50;;;;;;;;;;4994874;28;20096;-69
2022/01/16 08:49:17;;;;;;;95.15;68.20;;;;;;;;;;5011175;28;20022;-69
2022/01/16 08:51:43;;;;;;;93.57;60.38;;;;;;;;;;5001998;28;20121;-70
2022/01/16 08:54:10;;;;;;;98.20;74.20;;;;;;;;;;4993653;28;20018;-71
2022/01/16 08:56:39;;;;;;;98.57;67.90;;;;;;;;;;4995022;28;20034;-73
2022/01/16 08:59:05;;;;;;;108.55;77.45;;;;;;;;;;4998165;28;20022;-71
2022/01/16 09:01:31;;;;;;;126.38;96.47;;;;;;;;;;5007186;28;20065;-69
2022/01/16 09:03:57;;;;;;;132.35;88.28;;;;;;;;;;5012258;28;20053;-71
2022/01/16 09:06:24;;;;;;;131.23;92.05;;;;;;;;;;5012355;28;20037;-72
2022/01/16 09:08:50;;;;;;;154.00;106.32;;;;;;;;;;5012483;28;20419;-69
2022/01/16 09:11:23;;;;;;;135.13;92.10;;;;;;;;;;5012707;28;20026;-76
2022/01/16 09:13:53;;;;;;;131.10;97.55;;;;;;;;;;5012592;28;20026;-75
2022/01/16 09:16:21;;;;;;;145.55;108.07;;;307.80;1408.00;;;;;;5012900;28;20039;-72
2022/01/16 09:18:49;;;;;;;165.25;128.60;;;;;;;;;;5012774;28;20030;-74
2022/01/16 09:21:22;;;;;;;131.00;97.75;;;;;;;;;;5012083;28;20041;-75
2022/01/16 09:23:51;;;;;;;116.45;93.70;;;461.00;998.40;;;;;;4994788;28;20140;-70
2022/01/16 09:26:17;;;;;;;209.88;166.30;;;;;;;;;;5010998;28;20481;-72
2022/01/16 09:28:45;;;;;;;127.53;103.15;;;;;;;;;;5011768;28;20029;-75
2022/01/16 09:31:11;;;;;;;145.25;115.70;;;512.60;844.80;;;;;;5011999;28;20049;-70
2022/01/16 09:33:41;;;;;;;95.18;75.55;;;;;;;;;;5015394;28;20574;-74
2022/01/16 09:36:09;;;;;;;96.18;80.78;;;461.40;972.80;;;;;;5015424;28;20439;-71
2022/01/16 09:38:35;;;;;;;101.03;86.30;;;;;;;;;;5015487;28;20379;-74
2022/01/16 09:41:01;;;;;;;92.00;75.65;;;;;;;;;;5015621;28;20033;-76
2022/01/16 09:43:27;;;;;;;108.68;96.97;;;;;;;;;;5015240;28;20484;-70
2022/01/16 09:45:54;;;;;;;94.15;77.80;;;;;;;;;;5015367;28;20452;-70
2022/01/16 09:48:20;;;;;;;93.88;79.63;;;;;;;;;;4997162;28;20029;-68
2022/01/16 09:50:47;;;;;;;88.15;74.10;;;564.10;793.60;;;;;;5010897;28;20030;-69
2022/01/16 09:53:13;;;;;;;91.75;72.65;;;;;;;;;;5014132;28;20033;-69
2022/01/16 09:55:39;;;;;;;78.05;65.55;;;;;;;;;;5014104;28;20036;-71
2022/01/16 09:58:08;;;;;;;78.07;65.78;;;;;;;;;;5014770;28;20034;-67
2022/01/16 10:00:34;;;;;;;75.47;63.65;;;;;;;;;;5013758;28;20022;-69
2022/01/16 10:03:00;;;;;;;76.30;66.63;;;;;;;;;;5014272;28;20025;-72
2022/01/16 10:05:26;;;;;;;82.65;69.20;;;;;;;;;;5014504;28;20029;-70
2022/01/16 10:07:54;;;;;;;83.43;71.80;;;;;;;;;;5014319;28;20032;-72
2022/01/16 10:10:20;;;;;;;87.82;75.30;;;;;;;;;;5014414;28;20112;-71
2022/01/16 10:12:50;;;;;;;91.40;76.15;;;614.60;742.40;;;;;;5014612;28;20026;-70
2022/01/16 10:15:26;;;;;;;72.80;60.55;;;;;;;;;;5014627;28;20080;-70
2022/01/16 10:17:53;;;;;;;71.60;61.28;;;;;;;;;;4996951;28;20033;-68
2022/01/16 10:20:19;;;;;;;70.13;59.92;;;538.50;819.20;;;;;;5014800;28;20447;-69
2022/01/16 10:22:47;;;;;;;74.57;63.53;;;;;;;;;;5019853;28;20053;-69
2022/01/16 10:25:15;;;;;;;61.55;54.78;;;;;;;;;;5034298;28;20390;-69
2022/01/16 10:27:42;;;;;;;89.88;71.43;;;;;;;;;;5034414;28;20022;-70
2022/01/16 10:30:10;;;;;;;52.15;45.58;;;;;;;;;;5034140;28;20053;-69
2022/01/16 10:32:47;;;;;;;55.25;47.65;;;640.40;665.60;;;;;;5033651;28;20029;-69
2022/01/16 10:35:23;;;;;;;57.72;47.20;;;;;;;;;;5015928;28;20025;-69
2022/01/16 10:37:54;;;;;;;44.45;37.97;;;640.80;665.60;;;;;;5033420;28;20045;-70
2022/01/16 10:40:20;;;;;;;42.22;36.92;;;;;;;;;;5033779;28;20379;-68
2022/01/16 10:42:50;;;;;;;50.45;44.95;;;;;;;;;;5031308;28;20061;-70
2022/01/16 10:45:16;;;;;;;50.58;42.60;;;;;;;;;;5032876;28;20068;-70
2022/01/16 10:47:53;;;;;;;60.42;47.65;;;640.10;691.20;;;;;;5033470;28;20032;-70
2022/01/16 10:50:20;;;;;;;60.28;48.70;;;;;;;;;;5033313;28;20151;-69
2022/01/16 10:52:48;;;;;;;52.13;45.03;;;;;;;;;;5015648;28;20399;-70
2022/01/16 10:55:15;;;;;;;48.60;42.83;;;;;;;;;;5033393;28;20022;-71
2022/01/16 10:57:43;;;;;;;56.33;47.95;;;;;;;;;;5030829;28;20119;-70
2022/01/16 11:00:18;;;;;;;58.22;47.08;;;640.40;640.00;;;;;;5032473;28;20060;-70
2022/01/16 11:02:47;;;;;;;48.92;40.90;;;;;;;;;;5033610;28;20021;-70
2022/01/16 11:05:14;;;;;;;51.25;43.42;;;;;;;;;;5015385;28;20033;-70
2022/01/16 11:07:42;;;;;;;55.75;45.03;;;614.50;742.40;;;;;;5033408;28;20057;-70
2022/01/16 11:10:27;;;;;;;69.03;53.95;;;614.60;742.40;;;;;;5033896;28;20451;-70
2022/01/16 11:12:54;;;;;;;77.72;59.30;;;;;;;;;;5032932;28;20096;-70
2022/01/16 11:15:21;;;;;;;64.85;49.20;;;;;;;;;;5033126;28;20029;-70
2022/01/16 11:17:47;;;;;;;99.63;66.82;;;614.40;716.80;;;;;;5033300;28;20502;-70
2022/01/16 11:20:14;;;;;;;73.30;53.55;;;614.50;716.80;;;;;;5032542;28;20042;-70
2022/01/16 11:25:31;;;;;;;55.78;46.10;;;589.20;844.80;;;;;;5033482;28;20029;-70
2022/01/16 11:28:02;;;;;;;47.13;41.00;;;;;;;;;;5032469;28;20124;-69
2022/01/16 11:30:29;;;;;;;43.90;37.75;;;;;;;;;;5033898;28;20120;-69
2022/01/16 11:32:56;;;;;;;37.55;33.28;;;;;;;;;;5033310;28;20383;-70
2022/01/16 11:35:27;;;;;;;49.05;38.92;;;;;;;;;;5033094;28;20021;-69
2022/01/16 11:37:54;;;;;;;48.70;37.03;;;;;;;;;;5033654;28;20033;-70
2022/01/16 11:40:30;;;;;;;60.88;49.78;;;;;;;;;;5033594;28;20045;-69
2022/01/16 11:43:11;;;;;;;56.28;48.58;;;;;;;;;;5047147;28;20025;-70
2022/01/16 11:45:47;;;;;;;39.08;30.60;;;;;;;;;;5053311;28;20024;-70
2022/01/16 11:48:36;;;;;;;58.13;45.50;;;563.20;819.20;;;;;;5052840;28;20017;-69
2022/01/16 11:51:25;;;;;;;55.15;42.58;;;;;;;;;;5052742;28;20021;-69
2022/01/16 11:54:06;;;;;;;50.05;41.72;;;;;;;;;;5052710;28;20041;-67
2022/01/16 11:56:32;;;;;;;;;;;;;;;;;;5035284;28;20127;-69
2022/01/16 11:59:19;;;;;;;54.72;45.72;;;;;;;;;;5053220;28;19954;-68
2022/01/16 12:01:56;;;;;;;64.32;53.35;;;;;;;;;;5052846;28;20386;-68
2022/01/16 12:04:29;;;;;;;58.50;46.97;;;;;;;;;;5035005;28;20056;-69
2022/01/16 12:07:15;;;;;;;49.92;38.95;;;;;;;;;;5052781;28;20025;-69
2022/01/16 12:12:12;;;;;;;58.05;51.20;;;;;;;;;;5052815;28;20108;-69
2022/01/16 12:14:57;;;;;;;59.78;49.60;;;;;;;;;;5052829;28;20047;-69
2022/01/16 12:17:29;;;;;;;65.15;58.58;;;;;;;;;;5052404;28;20073;-70
2022/01/16 12:19:56;;;;;;;41.17;34.65;;;;;;;;;;5052578;28;20017;-69
2022/01/16 12:22:43;;;;;;;49.67;38.85;;;;;;;;;;5052355;28;20059;-69
2022/01/16 12:25:20;;;;;;;43.08;33.83;;;;;;;;;;5053005;28;20508;-68
2022/01/16 12:27:50;;;;;;;42.00;32.33;;;;;;;;;;5052957;28;20025;-68
2022/01/16 12:30:16;;;;;;;50.15;44.42;;;;;;;;;;5052836;28;20059;-68
2022/01/16 12:32:53;;;;;;;40.53;32.95;;;;;;;;;;5037747;28;20025;-68
2022/01/16 12:35:38;;;;;;;38.97;30.73;;;;;;;;;;5032330;28;20029;-68
2022/01/16 12:38:07;;;;;;;34.28;26.67;;;;;;;;;;5032119;28;20041;-68
2022/01/16 12:40:33;;;;;;;36.03;28.38;;;;;;;;;;5032618;28;20379;-68
2022/01/16 12:43:04;;;;;;;51.25;40.47;;;;;;;;;;5032467;28;20472;-69
2022/01/16 12:45:35;;;;;;;47.03;38.93;;;461.40;947.20;;;;;;5032669;28;20034;-70
2022/01/16 12:48:01;;;;;;;;;;;461.20;972.80;;;;;;5032870;28;20084;-69
2022/01/16 12:50:28;;;;;;;31.15;24.50;;;461.00;972.80;;;;;;5032414;28;19940;-68
2022/01/16 12:52:57;;;;;;;84.22;67.05;;;460.80;972.80;;;;;;5032523;28;20183;-69
2022/01/16 12:55:33;;;;;;;38.28;29.90;;;461.00;972.80;;;;;;5032661;28;20028;-69
2022/01/16 12:58:25;;;;;;;31.85;26.00;;;461.00;972.80;;;;;;5032306;28;20025;-68
2022/01/16 13:00:54;;;;;;;;;;;;;;;;;;5033541;28;20031;-69
2022/01/16 13:03:26;;;;;;;29.38;24.52;;;;;;;;;;5032397;28;19912;-69
2022/01/16 13:05:54;;;;;;;38.08;28.73;;;;;;;;;;5031802;28;20025;-68
2022/01/16 13:08:20;;;;;;;50.03;37.92;;;;;;;;;;5018264;28;20382;-70
2022/01/16 13:10:47;;;;;;;32.55;27.27;;;;;;;;;;5036076;28;20036;-69
2022/01/16 13:13:13;;;;;;;36.67;27.63;;;;;;;;;;5018642;28;20028;-70
2022/01/16 13:15:39;;;;;;;38.33;28.80;;;;;;;;;;5035991;28;20025;-70
2022/01/16 13:18:09;;;;;;;52.28;38.33;;;;;;;;;;5036252;28;20117;-70
2022/01/16 13:20:35;;;;;;;54.47;39.80;;;;;;;;;;5036210;28;20021;-70
2022/01/16 13:23:02;;;;;;;46.30;34.83;;;;;;;;;;5035041;28;20049;-70
2022/01/16 13:25:29;;;;;;;42.72;34.22;;;;;;;;;;5035976;28;20430;-69
2022/01/16 13:27:56;;;;;;;42.28;34.58;;;436.00;972.80;;;;;;5035695;28;20025;-69
2022/01/16 13:30:27;;;;;;;45.35;38.42;;;;;;;;;;5035623;28;20045;-69
2022/01/16 13:32:53;;;;;;;;;;;;;;;;;;5036066;28;20518;-68
2022/01/16 13:35:28;;;;;;;48.78;38.35;;;436.00;998.40;;;;;;5048162;28;19905;-69
2022/01/16 13:38:10;;;;;;;50.17;40.65;;;435.70;998.40;;;;;;5055745;28;20384;-67
2022/01/16 13:40:38;;;;;;;54.47;36.30;;;;;;;;;;5038034;28;20032;-67
2022/01/16 13:43:10;;;;;;;64.15;57.75;;;;;;;;;;5055432;28;20129;-69
2022/01/16 13:45:38;;;;;;;52.97;47.58;;;;;;;;;;5055351;28;20039;-68
2022/01/16 13:48:08;;;;;;;73.80;66.57;;;;;;;;;;5055031;28;20021;-68
2022/01/16 13:50:38;;;;;;;55.55;49.58;;;;;;;;;;5055129;28;20027;-69
2022/01/16 13:53:06;;;;;;;40.55;33.92;;;;;;;;;;5054944;28;20063;-69
2022/01/16 13:55:44;;;;;;;37.92;33.83;;;;;;;;;;5055213;28;20127;-69
2022/01/16 13:58:16;;;;;;;33.72;26.60;;;409.80;1075.20;;;;;;5054808;28;20035;-70
2022/01/16 14:00:41;;;;;;;;;;;;;;;;;;5036659;28;20035;-69
2022/01/16 14:03:26;;;;;;;83.78;56.25;;;;;;;;;;5042553;28;19909;-70
2022/01/16 14:06:16;;;;;;;65.75;47.60;;;384.70;1075.20;;;;;;5034920;28;20033;-69
2022/01/16 14:08:51;;;;;;;46.13;34.90;;;384.80;1075.20;;;;;;5034615;28;20029;-70
2022/01/16 14:11:23;;;;;;;61.50;44.58;;;384.70;1075.20;;;;;;5034772;28;20052;-69
2022/01/16 14:13:50;;;;;;;80.65;56.78;;;;;;;;;;5035050;28;20057;-68
2022/01/16 14:16:18;;;;;;;96.07;65.38;;;;;;;;;;5034607;28;20387;-69
2022/01/16 14:19:07;;;;;;;77.80;53.38;;;;;;;;;;5033854;28;20026;-69
2022/01/16 14:24:28;;;;;;;94.95;64.38;;;;;;;;;;5034036;28;20428;-69
2022/01/16 14:26:56;;;;;;;91.68;64.85;;;;;;;;;;5034028;28;20022;-69
2022/01/16 14:29:23;;;;;;;69.53;50.65;;;;;;;;;;5033747;28;20506;-69
2022/01/16 14:31:51;;;;;;;63.25;44.53;;;;;;;;;;5033106;28;20031;-69
2022/01/16 14:34:17;;;;;;;66.63;51.22;;;;;;;;;;5015300;28;20029;-71
2022/01/16 14:36:44;;;;;;;64.57;49.78;;;359.00;1177.60;;;;;;5033700;28;20480;-71